This is the latest recevied weather packets stored in our database for station/object E22ZMG-3. If no packets are shown the sender has not sent any weather packets the latest 10 day(s).
| Time | Temp. | Humidity | Pressure | Rain* | Wind** | Luminosity | Snow |
|---|---|---|---|---|---|---|---|
| 1777680649 | 31.67° C | 53% | 976 hPa | - | - | 0 W/m² | - |
| 1777680024 | 30.56° C | 54% | 976 hPa | - | - | 0 W/m² | - |
| 1777679400 | 30.56° C | 57% | 976 hPa | - | - | 0 W/m² | - |
| 1777678775 | 30.56° C | 56% | 976 hPa | - | - | 0 W/m² | - |
| 1777678151 | 30° C | 57% | 975 hPa | - | - | 0 W/m² | - |
| 1777677527 | 28.89° C | 59% | 975 hPa | - | - | 0 W/m² | - |
| 1777676899 | 30° C | 54% | 975 hPa | - | - | 0 W/m² | - |
| 1777676275 | 30° C | 56% | 975 hPa | - | - | 0 W/m² | - |
| 1777675650 | 30° C | 54% | 975 hPa | - | - | 0 W/m² | - |
| 1777675026 | 30° C | 54% | 975 hPa | - | - | 0 W/m² | - |
| 1777674402 | 30° C | 55% | 975 hPa | - | - | 0 W/m² | - |
| 1777673777 | 30° C | 54% | 974 hPa | - | - | 0 W/m² | - |
| 1777673153 | 30.56° C | 53% | 974 hPa | - | - | 0 W/m² | - |
| 1777672528 | 30.56° C | 54% | 974 hPa | - | - | 0 W/m² | - |
| 1777671904 | 30.56° C | 54% | 974 hPa | - | - | 0 W/m² | - |
| 1777671279 | 31.11° C | 52% | 974 hPa | - | - | 0 W/m² | - |
| 1777670655 | 30.56° C | 53% | 974 hPa | - | - | 0 W/m² | - |
| 1777670031 | 31.11° C | 52% | 974 hPa | - | - | 0 W/m² | - |
| 1777669407 | 30.56° C | 53% | 974 hPa | - | - | 0 W/m² | - |
| 1777668782 | 31.11° C | 52% | 974 hPa | - | - | 0 W/m² | - |
| 1777668158 | 30.56° C | 53% | 974 hPa | - | - | 0 W/m² | - |
| 1777667533 | 31.11° C | 51% | 974 hPa | - | - | 0 W/m² | - |
| 1777666909 | 31.67° C | 49% | 974 hPa | - | - | 0 W/m² | - |
| 1777666284 | 31.67° C | 49% | 974 hPa | - | - | 0 W/m² | - |
| 1777665660 | 32.22° C | 47% | 974 hPa | - | - | 0 W/m² | - |
* Rain since midnight (hover to see other rain measurements)
** Current wind speed in m/s (hover to see current wind gust speed)